Time;durP1;ratioP1;P1;durP2;ratioP2;P2;SDS_P1;SDS_P2;PMS_P1;PMS_P2;Temp;Humidity;BMP_temperature;BMP_pressure;BME280_temperature;BME280_humidity;BME280_pressure;Samples;Min_cycle;Max_cycle;Signal;HPM_P1;HPM_P2
2022/05/06 00:02:07;;;;;;;2.73;2.10;;;;;;;14.85;74.09;100154.84;5114165;28;20199;-65
2022/05/06 00:04:34;;;;;;;1.90;1.80;;;;;;;14.91;73.90;100157.19;5114443;28;20267;-65
2022/05/06 00:07:01;;;;;;;3.97;2.37;;;;;;;15.01;73.76;100161.97;5114213;28;20282;-65
2022/05/06 00:09:28;;;;;;;2.37;2.20;;;;;;;15.08;74.33;100165.19;5114540;28;20297;-65
2022/05/06 00:11:55;;;;;;;4.00;2.40;;;;;;;15.14;73.72;100167.53;5114040;28;20726;-65
2022/05/06 00:14:22;;;;;;;1.87;1.77;;;;;;;15.19;73.32;100157.88;5114206;28;20253;-65
2022/05/06 00:16:50;;;;;;;3.90;2.07;;;;;;;15.23;72.95;100167.19;5114289;28;20632;-65
2022/05/06 00:19:17;;;;;;;2.47;2.20;;;;;;;15.26;73.04;100169.66;5114029;28;20203;-65
2022/05/06 00:21:44;;;;;;;2.90;1.97;;;;;;;15.30;73.03;100166.09;5112981;28;20710;-65
2022/05/06 00:24:10;;;;;;;2.37;2.00;;;;;;;15.31;72.95;100169.50;5112323;28;20199;-65
2022/05/06 00:26:37;;;;;;;2.67;2.57;;;;;;;15.24;71.86;100155.97;5113943;28;20667;-65
2022/05/06 00:29:04;;;;;;;2.30;2.20;;;;;;;15.31;72.09;100169.50;5113521;28;20301;-65
2022/05/06 00:31:31;;;;;;;3.67;2.37;;;;;;;15.34;72.66;100185.75;5114089;28;20765;-65
2022/05/06 00:33:59;;;;;;;3.07;2.87;;;;;;;15.33;72.56;100178.03;5113653;28;20293;-65
2022/05/06 00:36:26;;;;;;;3.47;3.27;;;;;;;15.34;72.48;100178.00;5113551;28;20285;-65
2022/05/06 00:38:54;;;;;;;5.87;4.63;;;;;;;15.36;72.26;100183.94;5113810;28;20274;-65
2022/05/06 00:41:21;;;;;;;6.00;5.20;;;;;;;15.35;72.71;100187.41;5112096;28;20198;-65
2022/05/06 00:43:48;;;;;;;8.07;4.43;;;;;;;15.34;72.95;100179.72;5112970;28;20294;-65
2022/05/06 00:46:16;;;;;;;5.20;4.80;;;;;;;15.29;73.40;100171.28;5113359;28;20560;-65
2022/05/06 00:48:46;;;;;;;5.70;4.63;;;;;;;15.33;73.83;100183.19;5112885;28;20214;-65
2022/05/06 00:51:18;;;;;;;5.13;4.77;;;;;;;15.29;74.28;100179.88;5113203;28;20301;-65
2022/05/06 00:53:45;;;;;;;5.90;4.00;;;;;;;15.27;74.28;100189.44;5113503;28;20195;-65
2022/05/06 00:56:13;;;;;;;4.30;3.87;;;;;;;15.17;75.26;100175.19;5113117;28;20298;-65
2022/05/06 00:58:40;;;;;;;3.67;3.40;;;;;;;15.22;75.44;100191.34;5113395;28;20191;-66
2022/05/06 01:01:07;;;;;;;5.57;3.10;;;;;;;15.18;75.77;100189.78;5113414;28;20286;-65
2022/05/06 01:03:35;;;;;;;3.60;2.73;;;;;;;15.10;76.14;100187.47;5112118;28;20205;-65
2022/05/06 01:06:05;;;;;;;4.93;2.53;;;;;;;14.98;76.36;100182.75;5111424;28;20259;-65
2022/05/06 01:08:35;;;;;;;2.17;2.07;;;;;;;14.84;76.50;100172.06;5112344;28;20219;-65
2022/05/06 01:11:02;;;;;;;2.33;2.23;;;;;;;14.88;76.97;100190.88;5112553;28;20282;-65
2022/05/06 01:13:29;;;;;;;2.60;2.40;;;;;;;14.87;77.52;100189.16;5111619;28;20199;-65
2022/05/06 01:15:56;;;;;;;2.30;2.10;;;;;;;14.84;78.07;100181.53;5112673;28;20766;-65
2022/05/06 01:18:24;;;;;;;2.60;2.40;;;;;;;14.80;78.95;100195.47;5112718;28;20251;-65
2022/05/06 01:20:52;;;;;;;2.40;2.30;;;;;;;14.76;79.16;100184.41;5112717;28;20191;-65
2022/05/06 01:23:23;;;;;;;2.13;2.03;;;;;;;14.73;79.50;100185.34;5112479;27;20294;-65
2022/05/06 01:25:50;;;;;;;2.43;2.33;;;;;;;14.66;79.83;100170.97;5110397;28;20305;-65
2022/05/06 01:28:20;;;;;;;4.47;2.43;;;;;;;14.67;80.55;100182.97;5109980;28;20286;-65
2022/05/06 01:30:49;;;;;;;2.20;2.10;;;;;;;14.66;81.10;100178.72;5111008;28;20228;-64
2022/05/06 01:33:17;;;;;;;3.13;2.93;;;;;;;14.64;81.04;100183.06;5110633;28;20195;-65
2022/05/06 01:35:47;;;;;;;2.23;2.13;;;;;;;14.54;80.75;100168.78;5111458;28;20282;-66
2022/05/06 01:38:19;;;;;;;2.60;2.43;;;;;;;14.52;80.91;100162.84;5110310;28;20262;-65
2022/05/06 01:40:54;;;;;;;2.43;2.33;;;;;;;14.56;81.42;100174.75;5111086;28;20221;-66
2022/05/06 01:43:24;;;;;;;2.53;2.43;;;;;;;14.55;81.25;100178.22;5109457;28;20225;-64
2022/05/06 01:45:53;;;;;;;2.30;2.10;;;;;;;14.52;80.86;100168.00;5110004;28;20209;-64
2022/05/06 01:48:22;;;;;;;2.03;1.93;;;;;;;14.51;80.85;100183.53;5109870;28;20291;-64
2022/05/06 01:50:50;;;;;;;2.47;2.37;;;;;;;14.49;81.05;100173.28;5110553;28;20194;-64
2022/05/06 01:53:17;;;;;;;2.13;2.03;;;;;;;14.39;80.80;100163.31;5109595;28;20251;-64
2022/05/06 01:55:45;;;;;;;2.33;2.13;;;;;;;14.44;80.89;100180.31;5110145;28;20195;-64
2022/05/06 01:58:13;;;;;;;2.57;2.47;;;;;;;14.42;81.29;100176.94;5109454;28;20233;-64
2022/05/06 02:00:40;;;;;;;2.67;2.50;;;;;;;14.39;81.86;100169.31;5108272;28;20203;-64
2022/05/06 02:05:16;;;;;;;2.60;2.40;;;;;;;14.30;82.21;100161.00;5110363;28;20205;-64
2022/05/06 02:05:53;;;;;;;2.53;2.33;;;;;;;14.35;83.09;100175.47;5110337;28;20199;-64
2022/05/06 02:08:20;;;;;;;2.70;2.50;;;;;;;14.30;83.20;100179.91;5109243;28;20204;-64
2022/05/06 02:10:47;;;;;;;2.93;2.60;;;;;;;14.17;83.47;100163.16;5110277;28;20199;-64
2022/05/06 02:13:15;;;;;;;2.70;2.47;;;;;;;14.24;83.95;100174.13;5109342;28;20221;-64
2022/05/06 02:15:42;;;;;;;2.10;2.00;;;;;;;14.21;83.99;100180.22;5109836;28;20290;-64
2022/05/06 02:18:10;;;;;;;2.87;2.27;;;;;;;14.15;84.27;100175.28;5108020;28;20639;-64
2022/05/06 02:20:37;;;;;;;2.77;2.67;;;;;;;14.15;84.22;100170.13;5107800;28;20194;-64
2022/05/06 02:23:04;;;;;;;2.93;2.83;;;;;;;14.11;83.92;100168.50;5108750;28;20210;-64
2022/05/06 02:25:31;;;;;;;2.80;2.60;;;;;;;14.09;83.95;100178.88;5108677;28;20285;-64
2022/05/06 02:28:00;;;;;;;3.90;2.57;;;;;;;14.08;83.86;100181.50;5110016;28;20286;-64
2022/05/06 02:33:16;;;;;;;2.93;2.53;;;;;;;14.02;83.95;100187.69;5109221;28;20202;-64
2022/05/06 02:35:44;;;;;;;2.67;2.57;;;;;;;13.99;83.90;100189.53;5109275;28;20217;-64
2022/05/06 02:38:12;;;;;;;3.33;3.13;;;;;;;13.94;83.61;100181.94;5109173;28;20266;-64
2022/05/06 02:40:39;;;;;;;2.53;2.40;;;;;;;13.94;83.85;100183.66;5109976;28;20700;-64
2022/05/06 02:43:07;;;;;;;2.80;2.70;;;;;;;13.90;84.14;100190.66;5107560;28;20238;-63
2022/05/06 02:45:36;;;;;;;2.73;2.50;;;;;;;13.90;83.99;100192.38;5109097;28;20207;-64
2022/05/06 02:48:05;;;;;;;3.00;2.77;;;;;;;13.85;83.95;100195.13;5107755;28;20316;-64
2022/05/06 02:50:32;;;;;;;3.90;3.60;;;;;;;13.83;83.64;100190.91;5108985;28;20297;-63
2022/05/06 02:52:58;;;;;;;2.90;2.80;;;;;;;13.78;83.25;100187.59;5108337;28;20289;-64
2022/05/06 02:55:25;;;;;;;2.60;2.50;;;;;;;13.70;83.44;100187.00;5108674;28;20286;-64
2022/05/06 02:57:54;;;;;;;3.60;3.30;;;;;;;13.70;83.70;100189.59;5109930;28;20230;-64
2022/05/06 03:00:21;;;;;;;2.93;2.83;;;;;;;13.64;84.20;100191.44;5108631;28;20203;-64
2022/05/06 03:02:50;;;;;;;3.40;3.20;;;;;;;13.61;84.99;100201.84;5109516;28;20293;-63
2022/05/06 03:05:17;;;;;;;3.13;2.83;;;;;;;13.61;85.06;100201.00;5108649;28;20574;-64
2022/05/06 03:07:44;;;;;;;3.27;2.70;;;;;;;13.58;85.47;100194.22;5109135;28;20741;-64
2022/05/06 03:10:11;;;;;;;3.83;3.20;;;;;;;13.57;85.81;100195.09;5107003;28;20218;-63
2022/05/06 03:12:39;;;;;;;3.10;2.90;;;;;;;13.44;86.43;100178.31;5109872;28;20195;-64
2022/05/06 03:15:07;;;;;;;3.60;3.27;;;;;;;13.56;86.98;100208.88;5109212;28;20285;-63
2022/05/06 03:17:35;;;;;;;3.30;3.10;;;;;;;13.54;87.19;100204.63;5108156;28;20686;-64
2022/05/06 03:20:07;;;;;;;2.77;2.67;;;;;;;13.51;87.65;100199.56;5107339;28;20289;-63
2022/05/06 03:22:38;;;;;;;2.93;2.83;;;;;;;13.49;87.86;100197.06;5108454;28;20195;-64
2022/05/06 03:25:06;;;;;;;3.33;3.13;;;;;;;13.46;88.08;100201.47;5107923;28;20198;-63
2022/05/06 03:30:19;;;;;;;4.27;3.00;;;;;;;13.45;88.61;100200.59;5109194;28;20305;-63
2022/05/06 03:32:46;;;;;;;4.33;3.23;;;;;;;13.47;88.75;100201.41;5108812;28;20289;-64
2022/05/06 03:35:14;;;;;;;2.93;2.80;;;;;;;13.45;89.10;100208.34;5107980;28;20297;-63
2022/05/06 03:37:41;;;;;;;3.50;3.40;;;;;;;13.46;89.06;100197.16;5107927;28;20194;-64
2022/05/06 03:40:09;;;;;;;4.20;3.87;;;;;;;13.50;89.59;100209.06;5106610;28;20713;-64
2022/05/06 03:42:36;;;;;;;4.37;4.03;;;;;;;13.57;89.88;100205.38;5106940;28;20602;-63
2022/05/06 03:45:04;;;;;;;4.07;3.77;;;;;;;13.66;89.61;100215.44;5106162;28;20290;-64
2022/05/06 03:47:31;;;;;;;3.90;3.70;;;;;;;13.77;89.78;100215.09;5106209;28;20206;-64
2022/05/06 03:52:43;;;;;;;4.17;3.80;;;;;;;13.95;89.88;100227.47;5106852;28;20291;-63
2022/05/06 03:55:10;;;;;;;4.30;4.10;;;;;;;13.91;89.96;100212.13;5106777;28;20190;-64
2022/05/06 03:57:37;;;;;;;4.33;4.03;;;;;;;14.09;89.37;100229.59;5111259;28;20286;-64
2022/05/06 04:00:05;;;;;;;4.27;3.97;;;;;;;14.16;89.17;100225.94;5112191;28;20285;-64
2022/05/06 04:02:36;;;;;;;4.80;4.50;;;;;;;14.21;88.97;100224.06;5110441;28;20248;-64
2022/05/06 04:05:03;;;;;;;5.03;4.57;;;;;;;14.26;88.32;100227.31;5112659;28;20227;-64
2022/05/06 04:07:29;;;;;;;5.20;4.70;;;;;;;14.30;87.40;100228.91;5109966;28;20286;-64
2022/05/06 04:09:58;;;;;;;3.77;3.57;;;;;;;14.32;87.14;100231.44;5112110;28;20694;-64
2022/05/06 04:12:25;;;;;;;3.73;3.53;;;;;;;14.26;87.00;100217.00;5111810;28;20207;-64
2022/05/06 04:14:52;;;;;;;3.43;3.33;;;;;;;14.31;86.64;100235.78;5112412;28;20217;-64
2022/05/06 04:17:20;;;;;;;4.53;3.97;;;;;;;14.31;86.94;100229.78;5111042;28;20199;-64
2022/05/06 04:25:15;;;;;;;4.77;4.03;;;;;;;14.36;86.15;100223.59;5111573;28;20202;-65
2022/05/06 04:27:42;;;;;;;3.60;3.40;;;;;;;14.40;86.84;100240.66;5112007;28;20290;-64
2022/05/06 04:30:10;;;;;;;4.53;4.13;;;;;;;14.41;87.02;100242.34;5111069;28;20214;-64
2022/05/06 04:32:37;;;;;;;5.23;4.03;;;;;;;14.43;86.79;100240.56;5111240;28;20198;-64
2022/05/06 04:35:05;;;;;;;5.33;4.93;;;;;;;14.47;85.28;100242.16;5111097;28;20202;-64
2022/05/06 04:37:33;;;;;;;4.63;4.33;;;;;;;14.48;85.23;100246.41;5111640;28;20198;-64
2022/05/06 04:40:00;;;;;;;4.50;4.20;;;;;;;14.50;85.29;100236.91;5110607;28;20273;-64
2022/05/06 04:42:28;;;;;;;5.07;3.80;;;;;;;14.50;84.51;100234.31;5109937;28;20228;-63
2022/05/06 04:44:55;;;;;;;4.93;4.43;;;;;;;14.53;84.34;100239.38;5110697;28;20226;-64
2022/05/06 04:47:22;;;;;;;4.67;3.70;;;;;;;14.56;84.25;100231.53;5110861;28;20579;-64
2022/05/06 04:49:49;;;;;;;4.67;4.30;;;;;;;14.59;84.38;100236.59;5111306;28;20218;-64
2022/05/06 04:52:16;;;;;;;4.37;3.97;;;;;;;14.59;85.11;100249.50;5109611;28;20736;-64
2022/05/06 04:54:43;;;;;;;4.23;3.93;;;;;;;14.56;85.80;100247.00;5109079;28;20191;-64
2022/05/06 04:57:10;;;;;;;5.33;4.43;;;;;;;14.56;85.25;100257.34;5111210;27;20194;-64
2022/05/06 04:59:38;;;;;;;4.27;4.00;;;;;;;14.60;87.15;100248.56;5111414;28;20202;-64
2022/05/06 05:02:05;;;;;;;4.70;4.40;;;;;;;14.62;87.20;100251.97;5108624;28;20210;-64
2022/05/06 05:04:33;;;;;;;4.20;3.90;;;;;;;14.63;88.08;100248.50;5109605;28;20277;-64
2022/05/06 05:07:00;;;;;;;4.47;4.27;;;;;;;14.63;88.48;100253.66;5110102;28;20218;-64
2022/05/06 05:09:27;;;;;;;3.87;3.63;;;;;;;14.67;88.97;100249.22;5109289;28;20616;-64
2022/05/06 05:11:54;;;;;;;4.40;4.07;;;;;;;14.59;89.19;100256.38;5111615;28;20221;-64
2022/05/06 05:14:21;;;;;;;5.97;4.70;;;;;;;14.57;88.56;100258.19;5110380;28;20252;-64
2022/05/06 05:16:50;;;;;;;4.63;4.33;;;;;;;14.58;88.98;100265.84;5110771;28;20194;-64
2022/05/06 05:19:17;;;;;;;5.43;4.30;;;;;;;14.44;90.86;100262.88;5110202;28;20599;-64
2022/05/06 05:21:44;;;;;;;5.63;5.10;;;;;;;14.42;91.78;100268.97;5110759;28;20575;-64
2022/05/06 05:24:11;;;;;;;9.37;5.23;;;;;;;14.49;92.40;100266.16;5109558;28;20214;-64
2022/05/06 05:26:38;;;;;;;5.67;5.17;;;;;;;14.57;93.05;100256.41;5109970;28;20647;-64
2022/05/06 05:29:05;;;;;;;7.13;5.20;;;;;;;14.66;93.13;100268.19;5109544;27;20282;-64
2022/05/06 05:31:32;;;;;;;5.63;5.13;;;;;;;14.68;91.99;100267.25;5110285;28;20305;-64
2022/05/06 05:34:01;;;;;;;6.57;6.00;;;;;;;14.79;92.14;100263.47;5108780;28;20238;-64
2022/05/06 05:36:28;;;;;;;6.37;5.90;;;;;;;14.90;92.41;100266.50;5108131;28;20279;-64
2022/05/06 05:38:54;;;;;;;7.40;6.70;;;;;;;14.86;90.69;100262.38;5109099;27;20571;-64
2022/05/06 05:41:21;;;;;;;6.33;5.83;;;;;;;14.91;91.18;100266.47;5110452;27;20213;-64
2022/05/06 05:49:19;;;;;;;5.87;5.47;;;;;;;15.33;92.44;100258.97;5108955;28;20198;-64
2022/05/06 05:51:46;;;;;;;7.23;6.50;;;;;;;15.40;91.31;100275.09;5109935;28;20214;-64
2022/05/06 05:54:15;;;;;;;6.70;5.63;;;;;;;15.50;89.72;100273.91;5109604;28;20344;-64
2022/05/06 05:56:42;;;;;;;6.73;6.10;;;;;;;15.65;89.94;100263.84;5109608;28;20191;-64
2022/05/06 05:59:09;;;;;;;9.13;6.60;;;;;;;15.79;87.98;100265.06;5107769;28;20600;-64
2022/05/06 06:01:36;;;;;;;9.33;6.17;;;;;;;15.87;87.59;100268.19;5106832;28;20548;-64
2022/05/06 06:04:05;;;;;;;6.67;6.13;;;;;;;15.99;85.59;100272.91;5109650;28;20226;-64
2022/05/06 06:06:34;;;;;;;4.90;4.47;;;;;;;16.16;82.01;100276.53;5106361;28;20190;-64
2022/05/06 06:09:01;;;;;;;4.40;4.20;;;;;;;16.33;81.10;100275.03;5105473;28;20199;-64
2022/05/06 06:11:28;;;;;;;3.97;3.67;;;;;;;16.52;79.58;100271.63;5107070;28;20310;-64
2022/05/06 06:13:55;;;;;;;4.03;3.80;;;;;;;16.61;78.00;100271.28;5109958;28;20729;-64
2022/05/06 06:16:21;;;;;;;4.53;4.23;;;;;;;16.76;78.51;100273.28;5108637;28;20204;-64
2022/05/06 06:18:48;;;;;;;4.60;3.97;;;;;;;16.93;78.70;100276.91;5109050;28;20659;-64
2022/05/06 06:21:15;;;;;;;3.77;3.57;;;;;;;17.03;75.96;100271.25;5107695;28;20289;-64
2022/05/06 06:23:43;;;;;;;3.70;3.50;;;;;;;17.14;76.34;100268.19;5108745;28;20290;-64
2022/05/06 06:26:10;;;;;;;4.27;3.90;;;;;;;17.22;74.61;100271.31;5108750;28;20702;-64
2022/05/06 06:28:37;;;;;;;12.00;4.53;;;;;;;17.34;73.83;100265.59;5107578;28;21162;-64
2022/05/06 06:31:04;;;;;;;9.13;4.30;;;;;;;17.55;74.65;100285.41;5108441;28;20599;-64
2022/05/06 06:33:32;;;;;;;3.97;3.73;;;;;;;17.67;69.64;100281.44;5107150;28;20721;-64
2022/05/06 06:35:59;;;;;;;3.17;2.97;;;;;;;17.81;65.09;100279.03;5108656;28;20232;-64
2022/05/06 06:38:26;;;;;;;2.87;2.67;;;;;;;17.96;62.68;100285.28;5107919;28;20195;-68
2022/05/06 06:40:54;;;;;;;3.70;3.50;;;;;;;18.06;64.86;100270.97;5110609;27;20202;-68
2022/05/06 06:43:21;;;;;;;3.60;3.43;;;;;;;18.24;63.40;100277.88;5107113;28;21086;-68
2022/05/06 06:45:48;;;;;;;3.90;3.60;;;;;;;18.39;62.57;100279.72;5108553;28;20712;-68
2022/05/06 06:48:15;;;;;;;3.70;3.37;;;;;;;18.49;60.44;100280.97;5109035;28;20222;-67
2022/05/06 06:50:43;;;;;;;3.67;3.47;;;;;;;18.52;59.55;100273.06;5109208;28;20379;-68
2022/05/06 06:53:10;;;;;;;3.57;3.27;;;;;;;18.57;59.18;100284.09;5107296;28;20738;-67
2022/05/06 06:55:37;;;;;;;3.27;3.07;;;;;;;18.67;59.66;100282.72;5109625;28;20191;-68
2022/05/06 06:58:07;;;;;;;3.13;2.93;;;;;;;18.73;59.37;100274.63;5107136;28;20289;-68
2022/05/06 07:00:34;;;;;;;3.43;3.13;;;;;;;18.79;60.25;100278.66;5108654;28;20194;-67
2022/05/06 07:03:02;;;;;;;2.80;2.60;;;;;;;18.91;59.26;100266.81;5107694;28;20290;-67
2022/05/06 07:05:29;;;;;;;3.40;3.10;;;;;;;19.16;60.64;100272.47;5106104;28;20194;-67
2022/05/06 07:13:28;;;;;;;3.20;3.00;;;;;;;19.23;59.76;100263.41;5109962;28;20723;-67
2022/05/06 07:15:55;;;;;;;3.70;3.40;;;;;;;19.30;57.35;100269.97;5108815;28;20287;-67
2022/05/06 07:18:23;;;;;;;3.33;3.03;;;;;;;19.55;55.76;100262.59;5106654;28;20321;-67
2022/05/06 07:20:50;;;;;;;3.43;3.23;;;;;;;19.75;56.43;100257.16;5104609;28;20202;-66
2022/05/06 07:23:17;;;;;;;3.20;3.00;;;;;;;19.78;57.08;100262.19;5104877;28;20289;-67
2022/05/06 07:25:44;;;;;;;3.03;2.83;;;;;;;19.95;56.93;100266.50;5106117;28;20199;-68
2022/05/06 07:28:10;;;;;;;3.07;2.87;;;;;;;19.90;55.10;100271.94;5103692;28;20213;-66
2022/05/06 07:30:39;;;;;;;2.70;2.60;;;;;;;19.93;55.63;100263.94;5105580;27;20242;-67
2022/05/06 07:33:07;;;;;;;3.13;2.93;;;;;;;20.17;54.34;100271.34;5112468;28;20293;-68
2022/05/06 07:35:33;;;;;;;4.73;3.37;;;;;;;20.29;57.18;100270.72;5109840;28;20289;-67
2022/05/06 07:38:00;;;;;;;3.10;2.93;;;;;;;20.50;57.67;100261.66;5108765;28;20195;-68
2022/05/06 07:40:27;;;;;;;3.63;3.03;;;;;;;20.60;56.68;100264.59;5107547;28;20191;-68
2022/05/06 07:42:55;;;;;;;2.77;2.57;;;;;;;20.59;54.00;100255.91;5108309;27;20223;-67
2022/05/06 07:45:22;;;;;;;3.00;2.90;;;;;;;20.65;54.40;100265.97;5110077;28;20199;-67
2022/05/06 07:47:50;;;;;;;2.90;2.67;;;;;;;20.60;53.25;100268.03;5112079;28;20206;-68
2022/05/06 07:50:17;;;;;;;3.27;2.97;;;;;;;20.65;53.85;100268.59;5108953;28;20199;-69
2022/05/06 07:52:44;;;;;;;3.27;3.07;;;;;;;20.70;55.65;100266.56;5109458;28;20294;-68
2022/05/06 07:55:13;;;;;;;3.10;3.00;;;;;;;20.70;53.51;100263.97;5111970;28;20195;-68
2022/05/06 07:57:40;;;;;;;2.63;2.53;;;;;;;20.67;55.16;100274.56;5112644;28;20196;-67
2022/05/06 08:00:09;;;;;;;3.23;2.83;;;;;;;20.50;54.56;100266.88;5111531;28;20304;-68
2022/05/06 08:05:22;;;;;;;3.00;2.80;;;;;;;20.22;54.21;100266.72;5111884;28;20203;-67
2022/05/06 08:07:49;;;;;;;3.07;2.40;;;;;;;20.34;55.37;100266.06;5112262;28;20205;-68
2022/05/06 08:10:16;;;;;;;2.77;2.67;;;;;;;20.39;54.82;100264.03;5110597;28;20303;-68
2022/05/06 08:12:43;;;;;;;2.73;2.60;;;;;;;20.41;53.07;100255.22;5111978;28;20632;-68
2022/05/06 08:15:10;;;;;;;3.07;2.87;;;;;;;20.50;56.58;100261.66;5109971;27;20562;-65
2022/05/06 08:17:39;;;;;;;3.35;3.05;;;;;;;20.60;55.06;100268.03;5112485;28;20434;-66
2022/05/06 08:20:08;;;;;;;2.80;2.63;;;;;;;20.72;53.44;100267.31;5111048;28;20199;-65
2022/05/06 08:22:37;;;;;;;3.57;3.37;;;;;;;20.49;53.48;100251.31;5114430;28;20188;-66
2022/05/06 08:25:04;;;;;;;3.00;2.70;;;;;;;20.62;55.12;100255.75;5113366;28;20210;-66
2022/05/06 08:27:36;;;;;;;2.60;2.50;;;;;;;20.79;55.25;100273.00;5113301;27;20256;-66
2022/05/06 08:30:05;;;;;;;2.43;2.33;;;;;;;20.92;54.41;100279.19;5112423;28;20198;-66
2022/05/06 08:32:33;;;;;;;4.03;2.77;;;;;;;20.75;53.53;100261.94;5113748;28;20225;-66
2022/05/06 08:35:00;;;;;;;3.10;2.90;;;;;;;20.91;54.59;100273.13;5113754;28;20289;-66
2022/05/06 08:37:27;;;;;;;3.20;2.90;;;;;;;20.86;54.66;100269.97;5113554;28;20207;-67
2022/05/06 08:39:56;;;;;;;5.37;4.13;;;;;;;21.12;56.05;100265.00;5113734;28;20195;-66
2022/05/06 08:42:23;;;;;;;3.23;2.87;;;;;;;21.24;59.15;100264.25;5112195;28;20216;-66
2022/05/06 08:53:09;;;;;;;3.50;3.30;;;;;;;21.49;54.18;100254.00;5113685;28;20248;-64
2022/05/06 08:55:37;;;;;;;3.60;3.40;;;;;;;21.55;54.99;100258.84;5113001;28;20286;-63
2022/05/06 08:58:07;;;;;;;3.90;3.30;;;;;;;21.59;55.21;100257.72;5113072;28;20216;-63
2022/05/06 09:00:33;;;;;;;3.93;3.40;;;;;;;21.33;53.12;100250.66;5113307;28;20300;-63
2022/05/06 09:03:00;;;;;;;3.90;3.00;;;;;;;21.54;54.91;100246.75;5113480;28;20291;-63
2022/05/06 09:05:27;;;;;;;2.90;2.70;;;;;;;21.84;52.52;100255.25;5113403;28;20201;-63
2022/05/06 09:07:56;;;;;;;3.60;3.20;;;;;;;21.82;53.54;100240.63;5113488;28;20260;-63
2022/05/06 09:10:23;;;;;;;3.97;3.53;;;;;;;21.86;53.09;100253.41;5112807;28;20199;-63
2022/05/06 09:12:55;;;;;;;7.77;3.10;;;;;;;21.77;53.92;100253.16;5113118;28;20189;-64
2022/05/06 09:18:08;;;;;;;3.67;3.47;;;;;;;21.65;52.65;100239.06;5113234;28;20203;-64
2022/05/06 09:20:35;;;;;;;3.83;3.53;;;;;;;21.66;54.79;100235.53;5112897;28;20628;-64
2022/05/06 09:23:20;;;;;;;3.93;3.10;;;;;;;21.86;54.10;100229.91;5112226;27;20220;-63
2022/05/06 09:25:49;;;;;;;4.40;4.00;;;;;;;21.78;54.50;100213.88;5111524;28;20216;-64
2022/05/06 09:28:24;;;;;;;4.30;2.80;;;;;;;22.03;56.75;100223.66;5112481;27;20250;-64
2022/05/06 09:31:02;;;;;;;5.10;3.10;;;;;;;22.21;57.26;100222.47;5112584;28;20210;-64
2022/05/06 09:34:00;;;;;;;3.37;3.10;;;;;;;22.35;55.36;100218.94;5130778;28;20181;-65
2022/05/06 09:36:29;;;;;;;3.67;3.47;;;;;;;22.63;54.81;100220.56;5114973;28;20202;-61
2022/05/06 09:39:04;;;;;;;3.53;3.23;;;;;;;22.36;56.21;100203.16;5112643;28;20230;-61
2022/05/06 09:41:31;;;;;;;4.73;3.03;;;;;;;22.61;54.20;100209.38;5112574;28;20229;-61
2022/05/06 09:44:04;;;;;;;3.30;3.20;;;;;;;22.67;54.74;100188.94;5112357;27;20200;-61
2022/05/06 09:46:32;;;;;;;3.30;3.10;;;;;;;22.86;54.61;100197.19;5109133;28;20277;-61
2022/05/06 09:49:00;;;;;;;3.43;3.33;;;;;;;23.04;55.00;100196.91;5112656;28;20218;-61
2022/05/06 09:51:28;;;;;;;2.80;2.70;;;;;;;23.14;52.25;100196.13;5112238;28;20721;-62
2022/05/06 09:53:55;;;;;;;2.57;2.47;;;;;;;22.82;53.73;100197.50;5111744;28;20201;-62
2022/05/06 09:56:24;;;;;;;2.90;2.80;;;;;;;22.72;52.59;100197.28;5112418;28;20208;-61
2022/05/06 09:58:52;;;;;;;3.57;2.90;;;;;;;22.40;52.66;100194.19;5111998;28;20190;-61
2022/05/06 10:01:20;;;;;;;3.27;3.10;;;;;;;22.10;54.34;100188.34;5112154;28;20282;-62
2022/05/06 10:03:48;;;;;;;3.13;3.03;;;;;;;22.11;54.52;100166.53;5112276;28;20579;-62
2022/05/06 10:06:15;;;;;;;4.07;2.70;;;;;;;22.29;54.78;100180.16;5111873;28;20204;-61
2022/05/06 10:08:48;;;;;;;3.40;3.20;;;;;;;22.41;56.21;100169.75;5112105;28;20205;-60
2022/05/06 10:11:20;;;;;;;2.80;2.70;;;;;;;22.29;55.15;100178.41;5112060;28;20213;-61
2022/05/06 10:13:49;;;;;;;3.03;2.83;;;;;;;22.16;54.70;100166.25;5112089;28;20650;-61
2022/05/06 10:16:16;;;;;;;4.57;3.10;;;;;;;22.17;56.00;100173.13;5111655;27;20696;-60
2022/05/06 10:18:45;;;;;;;3.27;3.07;;;;;;;22.40;56.56;100168.06;5112252;28;20684;-61
2022/05/06 10:21:12;;;;;;;8.57;3.97;;;;;;;22.58;59.46;100152.94;5111114;28;20197;-60
2022/05/06 10:23:51;;;;;;;3.83;3.03;;;;;;;22.71;52.92;100156.44;5110599;27;20650;-60
2022/05/06 10:26:49;;;;;;;3.60;3.30;;;;;;;22.88;53.23;100171.78;5110439;28;20209;-60
2022/05/06 10:33:01;;;;;;;3.23;3.07;;;;;;;22.98;54.50;100151.06;5110886;28;20300;-61
2022/05/06 10:35:39;;;;;;;3.80;3.50;;;;;;;23.16;53.97;100154.19;5106732;28;20617;-60
2022/05/06 10:38:17;;;;;;;3.27;3.07;;;;;;;23.37;52.30;100143.03;5111315;28;20202;-60
2022/05/06 10:40:52;;;;;;;3.30;3.20;;;;;;;23.46;49.79;100141.56;5111568;28;20206;-60
2022/05/06 10:43:51;;;;;;;6.43;4.10;;;;;;;23.10;49.29;100133.69;5108478;28;20229;-61
2022/05/06 10:46:32;;;;;;;3.33;3.13;;;;;;;23.20;51.73;100135.53;5111346;28;20670;-60
2022/05/06 10:49:52;;;;;;;3.90;3.13;;;;;;;23.41;48.40;100122.75;5111553;28;20635;-60
2022/05/06 10:52:41;;;;;;;3.17;2.93;;;;;;;23.62;46.94;100118.56;5111158;28;20214;-61
2022/05/06 10:55:10;;;;;;;2.10;2.00;;;;;;;23.63;45.42;100115.03;5102925;28;20298;-61
2022/05/06 10:57:49;;;;;;;3.07;2.33;;;;;;;23.77;44.10;100117.47;5111620;28;20704;-60
2022/05/06 11:00:16;;;;;;;1.67;1.67;;;;;;;23.86;41.16;100114.19;5111097;28;20198;-61
2022/05/06 11:02:43;;;;;;;2.13;2.03;;;;;;;23.82;41.68;100112.72;5110889;28;20198;-61
2022/05/06 11:05:12;;;;;;;2.60;2.40;;;;;;;24.03;44.61;100111.16;5110515;28;20202;-61
2022/05/06 11:07:42;;;;;;;2.70;2.50;;;;;;;23.87;40.43;100110.63;5108287;28;20726;-61
2022/05/06 11:10:10;;;;;;;2.10;2.00;;;;;;;23.74;40.52;100104.63;5111186;28;20655;-61
2022/05/06 11:12:39;;;;;;;2.47;2.37;;;;;;;23.76;39.12;100101.88;5111134;28;20687;-60
2022/05/06 11:15:08;;;;;;;2.40;2.30;;;;;;;23.81;41.13;100100.56;5111169;28;20244;-60
2022/05/06 11:17:35;;;;;;;2.20;2.00;;;;;;;23.86;40.43;100095.84;5109798;28;20190;-61
2022/05/06 11:20:04;;;;;;;5.70;2.43;;;;;;;23.85;37.78;100096.78;5109788;28;20206;-61
2022/05/06 11:22:33;;;;;;;2.60;2.17;;;;;;;23.51;38.45;100087.97;5109725;28;20203;-60
2022/05/06 11:25:02;;;;;;;2.53;2.43;;;;;;;23.45;40.07;100087.56;5110754;28;20199;-60
2022/05/06 11:27:29;;;;;;;2.43;2.33;;;;;;;23.65;41.76;100089.56;5110839;28;20222;-60
2022/05/06 11:29:58;;;;;;;2.63;2.20;;;;;;;23.82;41.51;100086.53;5110779;28;20195;-60
2022/05/06 11:32:26;;;;;;;2.23;2.07;;;;;;;23.83;40.67;100076.91;5110654;28;20217;-61
2022/05/06 11:34:56;;;;;;;2.43;2.20;;;;;;;23.95;40.15;100087.31;5111055;28;20594;-61
2022/05/06 11:37:24;;;;;;;3.17;2.20;;;;;;;23.92;40.26;100077.06;5110876;28;20651;-61
2022/05/06 11:39:51;;;;;;;2.67;2.57;;;;;;;24.00;40.48;100076.50;5110236;28;20543;-61
2022/05/06 11:42:21;;;;;;;2.17;2.07;;;;;;;24.12;40.80;100083.47;5111029;28;20254;-60
2022/05/06 11:47:42;;;;;;;3.40;3.10;;;;;;;24.18;43.51;100077.75;5110784;28;20198;-61
2022/05/06 11:50:10;;;;;;;2.53;2.40;;;;;;;24.21;41.82;100050.47;5111045;28;20667;-61
2022/05/06 11:52:39;;;;;;;2.17;1.97;;;;;;;24.15;39.71;100066.66;5110705;28;20596;-61
2022/05/06 11:55:07;;;;;;;3.67;2.00;;;;;;;24.23;39.28;100069.56;5110209;28;20281;-61
2022/05/06 11:57:38;;;;;;;2.40;2.03;;;;;;;24.14;38.39;100065.00;5110349;28;20675;-61
2022/05/06 12:00:06;;;;;;;7.73;6.23;;;;;;;24.09;38.90;100056.63;5107977;28;20237;-61
2022/05/06 12:02:34;;;;;;;22.83;8.53;;;;;;;24.02;42.42;100051.84;5110494;28;20262;-61
2022/05/06 12:05:01;;;;;;;3.33;3.10;;;;;;;23.83;38.81;100053.34;5110490;28;20202;-61
2022/05/06 12:07:44;;;;;;;3.83;3.63;;;;;;;23.87;40.46;100046.94;5110578;28;20286;-61
2022/05/06 12:10:12;;;;;;;4.23;2.60;;;;;;;23.85;40.05;100049.66;5110317;28;20264;-61
2022/05/06 12:12:57;;;;;;;4.53;2.20;;;;;;;23.77;39.01;100040.72;5110683;28;20581;-61
2022/05/06 12:15:31;;;;;;;2.10;2.00;;;;;;;23.99;39.74;100043.38;5109305;28;20289;-63
2022/05/06 12:18:05;;;;;;;2.20;2.00;;;;;;;24.14;40.89;100041.41;5112513;28;20195;-61